• Join FlightAware (Why Join?)
  • Login
  • US Flag 
01:06AM EDT


 

Airport Tracker/Info


-or-


 

Live Flight TrackerFlight Track Log ✈ PDT4155 ✈ 29-Sep-2013 ✈ KBGM - KPHL

Flight Track Log - Related Links

Times and Time Zones

All times are in EDT time to prevent confusion due to time zone crossing. See the PDT4155 flight status page for this flight to view local times or setup timezone preferences in your user account.

Time Position Orientation Groundspeed Altitude Reporting Facility
EDT Latitude Longitude Course Direction KTS MPH feet Rate Location/Type
07:04AM 41.9875 -75.9074 180° South  Level Estimated
07:05AM 41.9308 -75.9136 185° South  Level FlightAware Approximate
07:06AM 41.8757 -75.8950 154° Southeast  Level Estimated
07:07AM 41.8205 -75.8764 160° South  Level Estimated
07:08AM 41.7654 -75.8579 159° South  Level Estimated
07:09AM 41.7093 -75.8456 171° South  Level FlightAware Approximate
07:10AM 41.6532 -75.8334 171° South  Level FlightAware Approximate
07:11AM 41.5981 -75.8145 153° Southeast  Level Estimated
07:12AM 41.5430 -75.7958 161° South  Level Estimated
07:13AM 41.4887 -75.7736 163° South  Level FlightAware Approximate
07:14AM 41.4343 -75.7514 163° South  Level FlightAware Approximate
07:15AM 41.3792 -75.7330 162° South  Level Estimated
07:16AM 41.3252 -75.7092 162° South  Level FlightAware Approximate
07:17AM 41.2712 -75.6854 162° South  Level FlightAware Approximate
07:18AM 41.2173 -75.6617 162° South  Level FlightAware Approximate
07:19AM 41.1633 -75.6380 162° South  Level FlightAware Approximate
07:20AM 41.1079 -75.6207 159° South  Level Estimated
07:21AM 41.0526 -75.6033 163° South  Level Estimated
07:22AM 40.9989 -75.5787 161° South  Level FlightAware Approximate
07:23AM 40.9452 -75.5541 161° South  Level FlightAware Approximate
07:24AM 40.8914 -75.5296 161° South  Level FlightAware Approximate
07:25AM 40.8359 -75.5136 190° South  Level Estimated
07:26AM 40.7791 -75.5113 178° South  Level FlightAware Approximate
07:27AM 40.7223 -75.5090 178° South  Level FlightAware Approximate
07:28AM 40.6654 -75.5067 178° South  Level FlightAware Approximate
07:29AM 40.6104 -75.4880 187° South  Level Estimated
07:29AM 40.6167 -75.4833 180° South 233 268 5,700  Level Philadelphia TRACON
07:30AM 40.5538 -75.4957 186° South  Level FlightAware Approximate
07:30AM 40.5333 -75.5000 189° South 228 262 4,900  Level Philadelphia TRACON
07:31AM 40.4992 -75.4751 190° South  Level Estimated
07:31AM 40.4833 -75.5167 194° South 217 250 4,900  Level Philadelphia TRACON
07:32AM 40.4438 -75.4918 193° South  Level FlightAware Approximate
07:32AM 40.4167 -75.5167 180° South 220 253 5,000  Level Philadelphia TRACON
07:33AM 40.3884 -75.5085 193° South  Level FlightAware Approximate
07:33AM 40.3667 -75.5167 180° South 219 252 4,900  Level Philadelphia TRACON
07:34AM 40.3356 -75.4809 180° South  Level Estimated
07:34AM 40.3000 -75.5167 180° South 219 252 4,900  Level Philadelphia TRACON
07:35AM 40.2333 -75.5167 180° South 218 251 4,800 -480 Descending Philadelphia TRACON
07:36AM 40.1833 -75.5167 180° South 221 254 4,000 -960 Descending Philadelphia TRACON
07:37AM 40.1167 -75.5167 180° South 227 261 3,000 -540 Descending Philadelphia TRACON
07:38AM 40.0500 -75.5333 191° South 222 255 2,900 -60 Descending Philadelphia TRACON
07:39AM 40.0000 -75.5333 180° South 209 241 2,900  Level Philadelphia TRACON
07:40AM 39.9333 -75.5333 180° South 210 242 3,000  Climbing Philadelphia TRACON
07:41AM 39.8833 -75.5333 180° South 207 238 3,000 -60 Level Philadelphia TRACON
07:42AM 39.8333 -75.5000 153° Southeast 162 186 2,900 -300 Descending Philadelphia TRACON
07:43AM 39.8333 -75.4333 90° East 170 196 2,400 -600 Descending Philadelphia TRACON
07:44AM 39.8500 -75.3667 72° East 161 185 1,600 -780 Descending Philadelphia TRACON
07:45AM 39.8500 -75.3167 90° East 111 128 700 -720 Descending Philadelphia TRACON
07:46AM 39.8667 -75.2833 57° Northeast 105 121 100 -600 Descending Philadelphia TRACON